Aviation Digital Data Service (ADDS)

Output produced by METARs form (0548 UTC 03 July 2022)
found at http://www.aviationweather.gov/metar/data/
 
METAR text: EPGD 030530Z 17004KT CAVOK 18/14 Q1023
Conditions at: EPGD (GDANSK/REBIECHOW, PL) observed 0530 UTC 03 July 2022
Temperature: 18.0°C (64°F)
Dewpoint: 14.0°C (57°F) [RH = 77%]
Pressure (altimeter): 30.21 inches Hg (1023.0 mb)
Winds: from the S (170 degrees) at 5 MPH (4 knots; 2.1 m/s)
Visibility: 6 or more miles (10+ km)
Ceiling: ceiling and visibility are OK
Clouds: unknown
Weather: no significant weather observed at this time

METAR text: EPGD 030500Z VRB02KT CAVOK 16/13 Q1023
Conditions at: EPGD (GDANSK/REBIECHOW, PL) observed 0500 UTC 03 July 2022
Temperature: 16.0°C (61°F)
Dewpoint: 13.0°C (55°F) [RH = 82%]
Pressure (altimeter): 30.21 inches Hg (1023.0 mb)
Winds: variable direction winds at 2 MPH (2 knots; 1.0 m/s)
Visibility: 6 or more miles (10+ km)
Ceiling: ceiling and visibility are OK
Clouds: unknown
Weather: no significant weather observed at this time

Forecast for: EPGD (GDANSK/REBIECHOW, PL)
Text: TAF EPGD 030530Z 0306/0406 VRB04KT CAVOK
Forecast period: 0600 UTC 03 July 2022 to 0600 UTC 04 July 2022
Forecast type: FROM: standard forecast or significant change
Winds: variable direction winds at 5 MPH (4 knots; 2.1 m/s)
Visibility: 6 or more miles (10+ km)
Ceiling: unknown
Clouds: missing
Weather: NSW  (no significant weather)